Hartford, Connecticut
Current Conditions -  °F | °C
As of 4:53 AM on Friday 28 Nov 2014 (Local Time) from KHFD Reporting Station
Broken Clouds Broken Clouds  
Wind Chill: 25°   Ceiling: 7000
Heat Index: 31°   Visibility: 10mi
Dew Point: 24°   Wind: 6mph
Humidity: 76%   Direction: NA
Pressure: 30.04"   Gusts: NA
Location:  41.76°N, 72.67°W
Report Text: KHFD 280953Z VRB05KT 10SM BKN070 M01/M04 A3004 RMK AO2 SLP173 T10061044
Loading
Personal Weather Stations






























Interactive Weather Map New forecast layout! Learn more

10-Day Weather Forecast

Advertisements
Track Severe Weather on mobile